Time;durP1;ratioP1;P1;durP2;ratioP2;P2;SDS_P1;SDS_P2;PMS_P1;PMS_P2;Temp;Humidity;BMP_temperature;BMP_pressure;BME280_temperature;BME280_humidity;BME280_pressure;Samples;Min_cycle;Max_cycle;Signal;HPM_P1;HPM_P2
2020/12/10 00:02:19;;;;;;;24.08;11.65;;;;;;;0.37;87.71;98121.75;5054711;28;20037;-73
2020/12/10 00:04:45;;;;;;;21.73;10.38;;;;;;;0.36;88.41;98117.41;5056918;28;20028;-73
2020/12/10 00:07:10;;;;;;;24.00;11.00;;;;;;;0.36;87.44;98117.41;5064336;28;20595;-74
2020/12/10 00:09:35;;;;;;;22.25;11.18;;;;;;;0.38;87.42;98118.94;5055371;28;20035;-73
2020/12/10 00:12:01;;;;;;;23.52;10.68;;;;;;;0.31;86.92;98111.72;5053965;28;20462;-74
2020/12/10 00:14:27;;;;;;;24.25;10.60;;;;;;;0.36;86.58;98122.75;5054731;28;20033;-73
2020/12/10 00:16:52;;;;;;;21.92;10.18;;;;;;;0.27;86.21;98113.03;5055198;28;20048;-74
2020/12/10 00:19:17;;;;;;;20.50;10.18;;;;;;;0.31;86.63;98114.38;5055665;28;20048;-73
2020/12/10 00:21:42;;;;;;;25.77;11.90;;;;;;;0.30;86.69;98108.22;5055027;28;20159;-73
2020/12/10 00:24:08;;;;;;;20.90;10.43;;;;;;;0.25;87.24;98099.88;5055378;28;20033;-73
2020/12/10 00:26:33;;;;;;;25.85;10.77;;;;;;;0.23;87.03;98085.91;5054884;28;20394;-74
2020/12/10 00:28:58;;;;;;;23.65;10.90;;;;;;;0.38;88.05;98099.47;5055213;28;20482;-74
2020/12/10 00:31:24;;;;;;;21.98;11.00;;;;;;;0.60;86.03;98096.31;5051772;28;20105;-73
2020/12/10 00:33:49;;;;;;;21.63;10.68;;;;;;;0.61;85.24;98089.97;5052842;28;20036;-74
2020/12/10 00:36:15;;;;;;;29.63;11.48;;;;;;;0.64;85.70;98094.16;5055569;28;20035;-74
2020/12/10 00:38:40;;;;;;;23.73;10.80;;;;;;;0.51;86.90;98083.91;5055050;28;20025;-73
2020/12/10 00:41:06;;;;;;;24.70;11.63;;;;;;;0.62;86.17;98088.97;5053918;28;20112;-73
2020/12/10 00:43:31;;;;;;;21.95;10.23;;;;;;;0.64;85.54;98094.16;5055578;28;20029;-73
2020/12/10 00:46:05;;;;;;;26.05;11.20;;;;;;;0.42;86.66;98076.91;5055217;28;20528;-73
2020/12/10 00:48:32;;;;;;;22.67;10.98;;;;;;;0.47;87.16;98085.22;5054992;28;20039;-74
2020/12/10 00:50:58;;;;;;;25.80;12.32;;;;;;;0.39;87.67;98077.19;5043427;28;20029;-74
2020/12/10 00:53:23;;;;;;;21.40;10.82;;;;;;;0.41;88.06;98080.53;5054675;28;20098;-74
2020/12/10 00:55:48;;;;;;;26.48;11.95;;;;;;;0.44;88.06;98080.22;5053259;28;20071;-74
2020/12/10 00:58:14;;;;;;;23.30;11.20;;;;;;;0.40;87.50;98081.53;5053449;28;20083;-73
2020/12/10 01:00:39;;;;;;;26.52;11.38;;;;;;;0.40;88.06;98086.84;5053034;28;20072;-73
2020/12/10 01:03:04;;;;;;;27.02;11.32;;;;;;;0.52;87.23;98069.63;5052136;28;20037;-74
2020/12/10 01:05:29;;;;;;;26.02;11.43;;;;;;;0.53;87.00;98081.13;5053952;28;20025;-73
2020/12/10 01:07:55;;;;;;;25.25;11.70;;;;;;;0.57;86.26;98085.13;5055234;28;20036;-73
2020/12/10 01:10:20;;;;;;;22.50;10.77;;;;;;;0.57;86.83;98074.47;5042682;28;20025;-73
2020/12/10 01:12:45;;;;;;;24.85;10.98;;;;;;;0.64;87.11;98073.69;5053384;28;20029;-74
2020/12/10 01:15:11;;;;;;;26.52;11.52;;;;;;;0.76;87.12;98068.06;5054318;28;20037;-73
2020/12/10 01:17:41;;;;;;;32.10;12.15;;;;;;;0.79;86.80;98065.13;5054048;28;20025;-73
2020/12/10 01:20:07;;;;;;;26.13;10.70;;;;;;;0.74;86.46;98083.41;5054799;28;20039;-73
2020/12/10 01:22:32;;;;;;;21.98;10.88;;;;;;;0.60;86.56;98067.03;5054292;28;20116;-73
2020/12/10 01:24:58;;;;;;;27.17;11.27;;;;;;;0.63;86.58;98069.38;5051180;28;20032;-73
2020/12/10 01:27:23;;;;;;;25.35;11.43;;;;;;;0.50;87.27;98082.25;5054477;28;20028;-73
2020/12/10 01:29:48;;;;;;;27.13;11.77;;;;;;;0.43;88.18;98076.72;5053311;28;20091;-73
2020/12/10 01:32:14;;;;;;;24.85;11.50;;;;;;;0.64;87.62;98080.84;5054271;28;20035;-72
2020/12/10 01:34:39;;;;;;;26.23;10.95;;;;;;;0.52;86.77;98058.13;5055184;28;20414;-73
2020/12/10 01:37:04;;;;;;;25.45;10.95;;;;;;;0.41;87.17;98067.22;5052965;28;20167;-73
2020/12/10 01:39:30;;;;;;;23.90;10.98;;;;;;;0.62;87.20;98074.81;5053244;28;20389;-72
2020/12/10 01:41:55;;;;;;;26.27;11.32;;;;;;;0.50;87.13;98060.97;5052925;28;20025;-74
2020/12/10 01:44:20;;;;;;;24.63;10.88;;;;;;;0.64;87.35;98063.03;5053665;28;20031;-74
2020/12/10 01:46:45;;;;;;;26.88;11.43;;;;;;;0.46;87.85;98056.94;5053664;28;20029;-73
2020/12/10 01:49:11;;;;;;;27.50;11.45;;;;;;;0.48;88.14;98054.97;5052650;28;20039;-73
2020/12/10 01:51:37;;;;;;;25.67;11.30;;;;;;;0.43;87.94;98059.94;5052520;28;20033;-73
2020/12/10 01:54:04;;;;;;;21.92;10.82;;;;;;;0.41;86.78;98048.59;5051936;28;20124;-73
2020/12/10 01:56:29;;;;;;;24.83;11.20;;;;;;;0.40;87.20;98049.59;5053021;28;20017;-74
2020/12/10 01:58:55;;;;;;;26.77;11.30;;;;;;;0.55;87.21;98047.16;5053915;28;20032;-74
2020/12/10 02:01:21;;;;;;;25.42;11.50;;;;;;;0.51;86.07;98044.00;5056191;28;20032;-74
2020/12/10 02:03:46;;;;;;;25.42;11.63;;;;;;;0.48;86.59;98044.31;5049224;28;20493;-74
2020/12/10 02:06:11;;;;;;;24.65;11.43;;;;;;;0.44;87.38;98037.63;5052999;28;20053;-73
2020/12/10 02:08:43;;;;;;;25.15;11.40;;;;;;;0.46;88.03;98037.50;5052958;28;20027;-73
2020/12/10 02:11:10;;;;;;;29.17;12.25;;;;;;;0.46;88.53;98038.31;5053791;28;20049;-73
2020/12/10 02:13:35;;;;;;;27.45;12.10;;;;;;;0.36;88.47;98021.63;5052662;28;20072;-73
2020/12/10 02:16:01;;;;;;;28.15;13.27;;;;;;;0.40;88.65;98023.00;5051821;28;20023;-73
2020/12/10 02:18:27;;;;;;;26.35;12.63;;;;;;;0.33;88.43;98021.94;5052486;28;20029;-73
2020/12/10 02:20:52;;;;;;;26.70;12.63;;;;;;;0.32;88.61;98017.63;5053358;28;20112;-73
2020/12/10 02:23:17;;;;;;;28.08;13.50;;;;;;;0.34;88.72;98015.63;5052946;28;20056;-73
2020/12/10 02:25:43;;;;;;;34.35;14.57;;;;;;;0.43;88.57;98020.00;5051680;28;20103;-72
2020/12/10 02:28:13;;;;;;;34.03;14.95;;;;;;;0.35;88.51;98002.19;5053014;28;20029;-73
2020/12/10 02:30:39;;;;;;;34.00;14.75;;;;;;;0.36;88.23;97995.84;5053203;28;20059;-73
2020/12/10 02:33:08;;;;;;;24.10;11.60;;;;;;;0.61;86.64;98006.63;5050964;28;20064;-74
2020/12/10 02:35:34;;;;;;;26.13;12.02;;;;;;;0.50;86.50;98012.22;5050878;28;20041;-74
2020/12/10 02:38:02;;;;;;;27.15;12.82;;;;;;;0.43;87.17;98009.38;5052362;28;20085;-73
2020/12/10 02:40:30;;;;;;;26.23;11.32;;;;;;;0.60;86.57;98013.78;5053454;28;20032;-73
2020/12/10 02:42:59;;;;;;;25.90;11.80;;;;;;;0.66;86.57;98014.97;5052247;28;20033;-73
2020/12/10 02:45:25;;;;;;;26.15;12.02;;;;;;;0.36;86.83;98016.31;5053411;28;20378;-72
2020/12/10 02:47:51;;;;;;;25.45;11.95;;;;;;;0.40;87.67;98007.03;5053468;28;20035;-73
2020/12/10 02:50:17;;;;;;;23.10;10.68;;;;;;;0.42;87.86;98010.38;5051955;28;20033;-72
2020/12/10 02:52:42;;;;;;;24.92;11.98;;;;;;;0.24;87.61;97998.94;5052802;28;20044;-73
2020/12/10 02:55:08;;;;;;;25.92;11.60;;;;;;;0.20;87.64;97996.59;5044631;28;20221;-72
2020/12/10 02:57:33;;;;;;;26.42;12.45;;;;;;;0.25;88.22;97992.66;5047753;28;20656;-73
2020/12/10 02:59:59;;;;;;;25.88;12.00;;;;;;;0.24;88.29;97985.63;5053785;28;20031;-73
2020/12/10 03:02:24;;;;;;;24.52;10.65;;;;;;;0.43;87.18;97982.75;5064583;28;20041;-73
2020/12/10 03:04:49;;;;;;;23.52;11.52;;;;;;;0.59;86.50;97984.66;5075927;28;20008;-73
2020/12/10 03:07:15;;;;;;;26.20;11.88;;;;;;;0.64;86.25;97980.50;5069294;28;20005;-73
2020/12/10 03:09:41;;;;;;;26.95;11.85;;;;;;;0.64;85.49;97972.53;5073214;28;20013;-73
2020/12/10 03:12:07;;;;;;;22.33;10.68;;;;;;;0.55;86.29;97972.66;5076942;28;20013;-73
2020/12/10 03:14:32;;;;;;;22.05;10.02;;;;;;;0.55;86.53;97973.50;5073446;28;20032;-73
2020/12/10 03:16:57;;;;;;;25.83;12.02;;;;;;;0.47;88.00;97968.13;5076938;28;20009;-73
2020/12/10 03:19:23;;;;;;;25.60;11.40;;;;;;;0.31;88.29;97944.13;5076317;28;20043;-73
2020/12/10 03:21:48;;;;;;;25.50;11.73;;;;;;;0.38;88.54;97961.13;5076877;28;20025;-72
2020/12/10 03:24:13;;;;;;;30.05;12.10;;;;;;;0.36;89.51;97955.94;5074652;28;20108;-73
2020/12/10 03:26:38;;;;;;;23.33;11.85;;;;;;;0.32;89.14;97945.81;5074121;28;20051;-73
2020/12/10 03:29:07;;;;;;;23.33;11.27;;;;;;;0.43;88.21;97938.34;5076572;28;20044;-71
2020/12/10 03:31:34;;;;;;;20.45;10.65;;;;;;;0.40;87.10;97946.66;5070827;28;20060;-73
2020/12/10 03:33:59;;;;;;;22.65;9.82;;;;;;;0.36;87.31;97931.16;5077363;28;20087;-73
2020/12/10 03:36:24;;;;;;;22.38;10.90;;;;;;;0.35;87.52;97933.00;5073806;28;20021;-73
2020/12/10 03:38:50;;;;;;;25.40;10.82;;;;;;;0.33;87.59;97934.16;5075521;28;20033;-73
2020/12/10 03:41:15;;;;;;;25.35;11.73;;;;;;;0.31;87.36;97928.16;5073790;28;20020;-73
2020/12/10 03:43:40;;;;;;;26.60;10.90;;;;;;;0.29;87.83;97911.50;5074206;28;20005;-72
2020/12/10 03:46:05;;;;;;;23.70;10.98;;;;;;;0.35;87.76;97922.34;5072125;28;20020;-73
2020/12/10 03:48:31;;;;;;;24.45;11.60;;;;;;;0.35;87.71;97918.88;5075574;28;20150;-74
2020/12/10 03:50:56;;;;;;;28.27;11.80;;;;;;;0.40;87.21;97920.06;5074243;28;20017;-73
2020/12/10 03:53:21;;;;;;;24.20;10.90;;;;;;;0.35;87.24;97902.91;5074347;28;20052;-71
2020/12/10 03:55:47;;;;;;;25.08;11.27;;;;;;;0.46;87.35;97907.94;5072427;28;20025;-73
2020/12/10 03:58:12;;;;;;;23.98;11.13;;;;;;;0.36;87.29;97888.59;5075014;28;20005;-73
2020/12/10 04:00:37;;;;;;;24.38;11.23;;;;;;;0.38;87.18;97902.59;5075624;28;20033;-73
2020/12/10 04:03:02;;;;;;;29.95;11.50;;;;;;;0.32;87.59;97897.91;5073049;28;20035;-72
2020/12/10 04:05:28;;;;;;;27.20;11.45;;;;;;;0.34;87.51;97907.41;5074988;28;20061;-72
2020/12/10 04:07:53;;;;;;;23.85;11.20;;;;;;;0.37;87.23;97899.09;5071820;28;20107;-73
2020/12/10 04:10:18;;;;;;;27.00;11.57;;;;;;;0.36;87.23;97899.25;5074880;28;20009;-72
2020/12/10 04:12:44;;;;;;;23.48;11.02;;;;;;;0.33;87.56;97900.41;5073740;28;20021;-73
2020/12/10 04:15:09;;;;;;;25.83;11.73;;;;;;;0.33;88.06;97903.06;5071395;28;20241;-72
2020/12/10 04:17:34;;;;;;;25.00;11.63;;;;;;;0.29;88.46;97887.56;5073969;28;20072;-71
2020/12/10 04:20:00;;;;;;;24.65;11.18;;;;;;;0.33;88.46;97910.22;5074017;28;20040;-72
2020/12/10 04:22:25;;;;;;;24.13;11.68;;;;;;;0.36;88.30;97908.06;5074644;28;20025;-72
2020/12/10 04:24:50;;;;;;;20.77;10.82;;;;;;;0.34;88.50;97899.41;5071877;28;20026;-73
2020/12/10 04:27:15;;;;;;;24.58;11.05;;;;;;;0.34;88.49;97891.44;5061525;28;20036;-72
2020/12/10 04:29:41;;;;;;;28.15;12.23;;;;;;;0.37;88.15;97895.59;5071558;28;20024;-73
2020/12/10 04:32:06;;;;;;;22.52;11.60;;;;;;;0.39;88.08;97889.13;5056771;28;20107;-73
2020/12/10 04:34:31;;;;;;;26.05;11.90;;;;;;;0.46;86.03;97888.47;5053552;28;20037;-73
2020/12/10 04:36:56;;;;;;;29.65;11.60;;;;;;;0.48;86.02;97889.16;5049990;28;20029;-73
2020/12/10 04:39:22;;;;;;;25.98;11.35;;;;;;;0.49;85.68;97899.63;5052073;28;20037;-73
2020/12/10 04:41:48;;;;;;;31.27;12.80;;;;;;;0.37;86.32;97891.13;5043533;28;20033;-73
2020/12/10 04:44:13;;;;;;;31.02;11.80;;;;;;;0.52;85.59;97901.94;5051902;28;20032;-73
2020/12/10 04:46:39;;;;;;;23.17;11.05;;;;;;;0.59;84.83;97892.31;5051642;28;20035;-73
2020/12/10 04:49:05;;;;;;;24.25;11.65;;;;;;;0.62;85.29;97899.16;5054328;28;20111;-73
2020/12/10 04:51:33;;;;;;;25.77;12.50;;;;;;;0.52;85.76;97901.13;5051454;28;20486;-73
2020/12/10 04:54:00;;;;;;;26.45;12.30;;;;;;;0.47;85.05;97890.94;5053931;28;20048;-73
2020/12/10 04:56:25;;;;;;;27.33;12.48;;;;;;;0.44;85.32;97902.75;5054773;28;20086;-73
2020/12/10 04:58:51;;;;;;;31.42;12.63;;;;;;;0.34;85.63;97895.91;5048707;28;20030;-73
2020/12/10 05:01:17;;;;;;;27.58;12.30;;;;;;;0.48;85.00;97891.81;5050601;28;20404;-73
2020/12/10 05:03:46;;;;;;;25.80;11.40;;;;;;;0.42;84.96;97883.47;5054651;28;20028;-73
2020/12/10 05:06:16;;;;;;;26.70;11.85;;;;;;;0.57;85.56;97899.63;5054498;28;20028;-72
2020/12/10 05:08:44;;;;;;;26.25;11.57;;;;;;;0.54;85.26;97891.97;5055142;28;20040;-73
2020/12/10 05:11:10;;;;;;;27.50;10.93;;;;;;;0.58;85.23;97885.34;5044273;28;20029;-73
2020/12/10 05:13:36;;;;;;;23.23;10.43;;;;;;;0.63;85.67;97890.19;5053210;28;20043;-73
2020/12/10 05:16:02;;;;;;;27.23;11.32;;;;;;;0.49;86.41;97888.97;5054089;28;20074;-72
2020/12/10 05:18:28;;;;;;;25.95;11.18;;;;;;;0.53;86.66;97882.34;5053803;28;20071;-73
2020/12/10 05:20:57;;;;;;;25.15;10.77;;;;;;;0.54;86.62;97886.66;5053777;28;20175;-73
2020/12/10 05:23:36;;;;;;;24.80;11.38;;;;;;;0.38;87.11;97881.28;5053770;28;20095;-73
2020/12/10 05:26:02;;;;;;;23.95;11.13;;;;;;;0.33;87.81;97888.94;5043638;28;20426;-72
2020/12/10 05:28:41;;;;;;;25.85;10.95;;;;;;;0.30;87.96;97881.28;5044721;28;20029;-74
2020/12/10 05:31:09;;;;;;;21.83;10.10;;;;;;;0.37;87.17;97858.34;5045430;28;20032;-75
2020/12/10 05:33:35;;;;;;;22.98;10.73;;;;;;;0.38;87.54;97874.13;5044180;28;20037;-75
2020/12/10 05:36:11;;;;;;;22.67;11.43;;;;;;;0.39;87.62;97874.97;5054805;28;20108;-76
2020/12/10 05:38:58;;;;;;;24.75;11.48;;;;;;;0.44;87.37;97876.16;5051558;28;20043;-72
2020/12/10 05:41:24;;;;;;;32.58;13.70;;;;;;;0.46;87.71;97878.66;5046874;28;20029;-75
2020/12/10 05:43:50;;;;;;;28.52;11.82;;;;;;;0.41;87.91;97875.66;5053230;28;20029;-75
2020/12/10 05:46:21;;;;;;;25.40;11.75;;;;;;;0.28;88.03;97846.84;5053366;28;20376;-76
2020/12/10 05:48:47;;;;;;;30.02;11.95;;;;;;;0.38;87.95;97866.16;5038906;28;20037;-77
2020/12/10 05:51:41;;;;;;;26.35;11.38;;;;;;;0.35;87.90;97868.31;5044050;28;20116;-79
2020/12/10 05:54:09;;;;;;;22.15;10.57;;;;;;;0.33;87.93;97868.47;5051769;28;20043;-76
2020/12/10 05:56:42;;;;;;;24.25;11.45;;;;;;;0.32;88.64;97864.16;5056942;28;20060;-76
2020/12/10 05:59:08;;;;;;;24.20;11.25;;;;;;;0.31;88.50;97862.47;5050289;28;20112;-76
2020/12/10 06:01:35;;;;;;;22.35;10.95;;;;;;;0.58;87.68;97877.38;5069119;28;20511;-76
2020/12/10 06:04:01;;;;;;;25.75;11.68;;;;;;;0.68;86.06;97871.03;5049598;28;20024;-76
2020/12/10 06:06:29;;;;;;;26.35;11.50;;;;;;;0.78;85.17;97866.41;5053693;28;20035;-75
2020/12/10 06:08:59;;;;;;;25.00;11.00;;;;;;;0.68;85.57;97871.03;5044139;28;20024;-75
2020/12/10 06:11:25;;;;;;;25.55;11.18;;;;;;;0.59;85.63;97867.53;5050039;28;20029;-77
2020/12/10 06:13:59;;;;;;;26.05;12.05;;;;;;;0.43;85.30;97847.06;5051486;28;20028;-78
2020/12/10 06:16:24;;;;;;;25.90;11.95;;;;;;;0.37;86.07;97853.03;5045065;28;20087;-79
2020/12/10 06:18:54;;;;;;;26.70;11.80;;;;;;;0.34;86.40;97846.22;5062665;28;20359;-71
2020/12/10 06:21:45;;;;;;;25.98;11.43;;;;;;;0.41;86.79;97860.50;5045845;28;20040;-74
2020/12/10 06:24:25;;;;;;;26.20;11.80;;;;;;;0.40;86.95;97855.38;5041901;28;20437;-73
2020/12/10 06:26:55;;;;;;;30.13;12.40;;;;;;;0.43;86.51;97855.03;5047994;28;20398;-74
2020/12/10 06:29:30;;;;;;;31.75;13.15;;;;;;;0.35;86.48;97858.50;5035266;28;20088;-77
2020/12/10 06:32:04;;;;;;;27.02;12.55;;;;;;;0.35;86.95;97845.19;5045716;28;20029;-76
2020/12/10 06:34:34;;;;;;;30.00;12.70;;;;;;;0.32;87.73;97834.88;5052247;28;20115;-77
2020/12/10 06:37:13;;;;;;;22.85;11.57;;;;;;;0.44;88.00;97854.03;5041853;28;20025;-76
2020/12/10 06:39:38;;;;;;;25.80;12.02;;;;;;;0.42;88.38;97872.00;5050646;28;20118;-75
2020/12/10 06:42:04;;;;;;;28.30;11.90;;;;;;;0.31;88.85;97853.66;5053146;28;20059;-76
2020/12/10 06:44:34;;;;;;;27.35;12.07;;;;;;;0.25;89.34;97847.16;5052568;28;20548;-76
2020/12/10 06:46:59;;;;;;;27.58;12.35;;;;;;;0.36;89.27;97867.31;5048074;28;20029;-75
2020/12/10 06:49:29;;;;;;;27.98;12.52;;;;;;;0.29;89.09;97867.16;5053119;28;20363;-75
2020/12/10 06:52:18;;;;;;;24.30;11.60;;;;;;;0.34;89.13;97874.63;5047721;28;20044;-74
2020/12/10 06:55:10;;;;;;;29.38;13.75;;;;;;;0.39;89.10;97872.31;5051044;28;20085;-75
2020/12/10 06:58:03;;;;;;;26.13;11.88;;;;;;;0.36;89.16;97867.31;5052555;28;20029;-73
2020/12/10 07:00:45;;;;;;;27.10;11.80;;;;;;;0.42;89.11;97869.34;5041096;28;20427;-74
2020/12/10 07:03:24;;;;;;;25.83;11.60;;;;;;;0.44;89.30;97864.66;5047639;28;20478;-74
2020/12/10 07:05:49;;;;;;;29.15;12.35;;;;;;;0.41;88.63;97873.81;5047339;28;20471;-74
2020/12/10 07:08:17;;;;;;;29.23;12.45;;;;;;;0.38;88.50;97868.00;5047145;28;20120;-75
2020/12/10 07:10:45;;;;;;;26.23;12.55;;;;;;;0.30;88.67;97860.00;5038480;28;20116;-75
2020/12/10 07:13:14;;;;;;;29.23;12.68;;;;;;;0.31;88.82;97866.97;5036754;28;20032;-73
2020/12/10 07:15:40;;;;;;;26.75;12.45;;;;;;;0.22;88.71;97848.31;5043565;28;20043;-74
2020/12/10 07:18:05;;;;;;;26.23;12.90;;;;;;;0.40;89.07;97880.13;5046709;28;20382;-71
2020/12/10 07:20:32;;;;;;;22.35;11.75;;;;;;;0.47;89.14;97882.97;5045499;28;20078;-73
2020/12/10 07:22:59;;;;;;;27.73;13.35;;;;;;;0.49;89.55;97888.13;5047776;28;20025;-73
2020/12/10 07:25:24;;;;;;;25.10;12.13;;;;;;;0.48;89.26;97889.97;5048508;28;20025;-73
2020/12/10 07:27:49;;;;;;;25.98;12.05;;;;;;;0.54;89.61;97881.34;5032834;28;20021;-73
2020/12/10 07:30:17;;;;;;;28.42;12.57;;;;;;;0.52;89.40;97878.00;5045375;28;20032;-73
2020/12/10 07:32:43;;;;;;;27.58;12.57;;;;;;;0.56;89.53;97881.19;5035288;28;20503;-73
2020/12/10 07:35:09;;;;;;;28.02;12.20;;;;;;;0.59;89.25;97884.34;5043436;28;20024;-73
2020/12/10 07:37:37;;;;;;;24.40;11.27;;;;;;;0.60;88.88;97879.84;5045474;28;20137;-73
2020/12/10 07:40:28;;;;;;;27.23;12.45;;;;;;;0.62;88.54;97880.53;5053268;28;20031;-73
2020/12/10 07:43:02;;;;;;;26.02;12.05;;;;;;;0.65;88.94;97883.72;5043681;28;20391;-73
2020/12/10 07:45:27;;;;;;;25.98;11.45;;;;;;;0.64;88.30;97865.22;5039688;28;20033;-73
2020/12/10 07:47:57;;;;;;;31.02;12.98;;;;;;;0.68;88.37;97887.00;5045515;28;20079;-73
2020/12/10 07:50:25;;;;;;;24.33;11.02;;;;;;;0.70;88.54;97885.03;5039919;28;20087;-73
2020/12/10 07:52:52;;;;;;;26.65;12.15;;;;;;;0.63;88.95;97880.38;5043008;28;20017;-73
2020/12/10 07:55:24;;;;;;;24.38;11.70;;;;;;;0.71;88.54;97881.34;5041693;28;20036;-73
2020/12/10 07:57:57;;;;;;;27.10;11.68;;;;;;;0.69;88.95;97872.72;5044638;28;20064;-73
2020/12/10 08:00:25;;;;;;;29.08;12.40;;;;;;;0.77;88.17;97875.41;5043925;28;20087;-73
2020/12/10 08:03:03;;;;;;;27.13;11.73;;;;;;;0.71;88.24;97881.34;5043261;28;20028;-73
2020/12/10 08:05:29;;;;;;;26.60;11.80;;;;;;;0.70;87.73;97877.03;5052826;28;20053;-72
2020/12/10 08:07:55;;;;;;;26.95;12.57;;;;;;;0.70;87.55;97877.88;5038731;28;20053;-73
2020/12/10 08:10:27;;;;;;;29.77;12.75;;;;;;;0.81;87.03;97884.72;5042872;28;20032;-72
2020/12/10 08:13:16;;;;;;;30.95;13.93;;;;;;;0.98;86.38;97878.41;5041672;28;20116;-77
2020/12/10 08:15:49;;;;;;;33.03;13.57;;;;;;;1.02;86.39;97881.56;5036644;28;20037;-76
2020/12/10 08:18:19;;;;;;;36.83;14.00;;;;;;;0.96;86.41;97852.94;5042232;28;20579;-76
2020/12/10 08:20:47;;;;;;;29.23;12.88;;;;;;;1.19;85.62;97874.44;5050766;28;20607;-76
2020/12/10 08:23:15;;;;;;;23.33;10.93;;;;;;;1.29;83.31;97885.75;5053615;28;20078;-76
2020/12/10 08:25:42;;;;;;;29.73;12.90;;;;;;;1.09;83.94;97872.75;5055617;28;20649;-75
2020/12/10 08:28:09;;;;;;;31.92;12.75;;;;;;;1.07;84.86;97861.47;5054080;28;20052;-76
2020/12/10 08:30:36;;;;;;;30.42;12.45;;;;;;;1.21;84.55;97880.44;5054383;28;20107;-76
2020/12/10 08:33:03;;;;;;;36.40;12.82;;;;;;;1.13;84.14;97867.94;5054810;28;20086;-76
2020/12/10 08:35:39;;;;;;;42.30;13.50;;;;;;;1.25;85.34;97879.91;5052070;28;20108;-72
2020/12/10 08:38:04;;;;;;;66.10;15.18;;;;;;;1.26;84.00;97876.25;5052889;28;20031;-72
2020/12/10 08:40:29;;;;;;;42.97;13.07;;;;;;;1.30;83.89;97868.75;5036684;28;20029;-72
2020/12/10 08:42:55;;;;;;;23.40;11.88;;;;;;;1.27;83.73;97871.75;5051717;28;20078;-74
2020/12/10 08:45:32;;;;;;;24.45;11.68;;;;;;;1.20;84.21;97868.09;5035984;28;20033;-76
2020/12/10 08:48:00;;;;;;;27.98;11.52;;;;;;;1.07;84.03;97866.78;5049364;28;20040;-74
2020/12/10 08:50:27;;;;;;;33.95;13.10;;;;;;;1.14;84.66;97874.09;5056147;28;20035;-78
2020/12/10 08:52:58;;;;;;;27.92;12.40;;;;;;;1.29;84.64;97881.25;5049356;28;20501;-73
2020/12/10 08:55:23;;;;;;;27.88;12.55;;;;;;;1.32;85.06;97866.75;5041537;28;20032;-73
2020/12/10 08:57:49;;;;;;;26.15;13.07;;;;;;;1.41;84.15;97867.59;5052860;28;20036;-73
2020/12/10 09:00:15;;;;;;;20.77;10.07;;;;;;;1.67;81.88;97862.03;5051417;28;20048;-73
2020/12/10 09:02:40;;;;;;;13.82;5.45;;;;;;;1.54;79.13;97863.38;5053175;28;20033;-74
2020/12/10 09:05:05;;;;;;;17.85;7.13;;;;;;;1.65;79.20;97866.72;5054455;28;20029;-75
2020/12/10 09:07:31;;;;;;;22.13;8.15;;;;;;;1.50;80.62;97864.75;5051342;28;20021;-75
2020/12/10 09:09:56;;;;;;;23.35;10.18;;;;;;;1.53;82.02;97868.91;5053577;28;20037;-74
2020/12/10 09:12:21;;;;;;;22.02;9.52;;;;;;;1.51;81.78;97874.41;5052534;28;20025;-73
2020/12/10 09:14:47;;;;;;;22.92;10.63;;;;;;;1.68;81.00;97871.72;5051454;28;20037;-76
2020/12/10 09:17:12;;;;;;;25.80;9.77;;;;;;;1.65;81.86;97866.72;5051120;28;20037;-74
2020/12/10 09:19:37;;;;;;;24.65;10.85;;;;;;;1.71;80.65;97864.22;5047041;28;20033;-74
2020/12/10 09:22:03;;;;;;;21.65;9.77;;;;;;;1.71;81.80;97850.88;5049223;28;20117;-75
2020/12/10 09:24:28;;;;;;;19.83;8.90;;;;;;;2.02;81.01;97859.94;5046302;28;20449;-70
2020/12/10 09:26:54;;;;;;;11.82;5.80;;;;;;;1.95;79.44;97865.13;5052711;28;20071;-69
2020/12/10 09:29:19;;;;;;;13.30;5.68;;;;;;;1.93;77.52;97851.97;5044704;28;20024;-74
2020/12/10 09:31:44;;;;;;;12.20;5.72;;;;;;;1.93;78.18;97856.47;5047664;28;20033;-74
2020/12/10 09:34:10;;;;;;;14.20;6.82;;;;;;;1.93;78.69;97856.47;5050174;28;20033;-74
2020/12/10 09:36:35;;;;;;;18.13;8.43;;;;;;;2.04;78.87;97861.44;5039016;28;20060;-76
2020/12/10 09:39:00;;;;;;;25.45;14.38;;;;;;;2.03;78.92;97862.44;5049402;28;20029;-76
2020/12/10 09:41:26;;;;;;;19.00;9.30;;;;;;;1.97;78.94;97839.13;5045317;28;20038;-74
2020/12/10 09:43:51;;;;;;;25.30;9.13;;;;;;;1.99;79.92;97855.78;5049610;28;20041;-72
2020/12/10 09:46:16;;;;;;;20.00;8.80;;;;;;;1.81;79.64;97858.69;5034433;28;20026;-75
2020/12/10 09:48:42;;;;;;;21.23;9.00;;;;;;;1.64;80.66;97862.38;5039975;28;20545;-75
2020/12/10 09:51:08;;;;;;;17.48;7.63;;;;;;;1.73;80.91;97856.03;5042316;28;20428;-73
2020/12/10 09:53:39;;;;;;;14.50;6.75;;;;;;;1.67;79.62;97864.72;5047614;28;20437;-73
2020/12/10 09:58:35;;;;;;;17.23;8.07;;;;;;;1.50;80.51;97859.41;5042256;28;20052;-74
2020/12/10 10:01:01;;;;;;;17.48;7.88;;;;;;;1.48;81.45;97869.41;5038759;28;20474;-73
2020/12/10 10:03:26;;;;;;;13.40;6.97;;;;;;;1.44;80.98;97861.91;5053950;28;20108;-74
2020/12/10 10:05:51;;;;;;;17.40;7.50;;;;;;;1.46;80.98;97860.75;5051208;28;20052;-74
2020/12/10 10:08:17;;;;;;;18.92;7.80;;;;;;;1.50;80.63;97858.59;5054064;28;20459;-73
2020/12/10 10:10:42;;;;;;;15.10;6.97;;;;;;;1.41;80.53;97865.75;5054041;28;20466;-73
2020/12/10 10:13:08;;;;;;;18.30;7.45;;;;;;;1.47;80.51;97850.94;5047623;28;20537;-73
2020/12/10 10:15:33;;;;;;;16.83;8.02;;;;;;;1.57;80.24;97850.72;5052349;28;20036;-75
2020/12/10 10:17:58;;;;;;;28.98;9.73;;;;;;;1.47;80.20;97845.59;5053772;28;20067;-73
2020/12/10 10:20:24;;;;;;;21.20;8.75;;;;;;;1.32;81.13;97837.44;5048467;28;20064;-74
2020/12/10 10:22:49;;;;;;;20.27;8.68;;;;;;;1.37;81.14;97851.09;5033883;28;20025;-73
2020/12/10 10:25:14;;;;;;;23.00;8.63;;;;;;;1.36;81.39;97852.09;5033840;28;20029;-72
2020/12/10 10:27:40;;;;;;;20.40;9.23;;;;;;;1.41;81.83;97849.75;5039669;28;20044;-72
2020/12/10 10:30:06;;;;;;;22.40;10.40;;;;;;;1.29;81.41;97832.47;5063799;28;20123;-76
2020/12/10 10:32:32;;;;;;;19.08;8.43;;;;;;;1.37;82.00;97855.59;5049741;28;20067;-76
2020/12/10 10:34:57;;;;;;;20.60;8.93;;;;;;;1.27;82.23;97839.78;5052452;28;20029;-76
2020/12/10 10:37:23;;;;;;;19.98;8.57;;;;;;;1.44;81.91;97840.59;5046288;28;20071;-75
2020/12/10 10:39:48;;;;;;;22.23;9.77;;;;;;;1.43;82.25;97834.44;5049267;28;20396;-75
2020/12/10 10:42:13;;;;;;;22.55;9.52;;;;;;;1.45;82.37;97836.94;5034452;28;20025;-75
2020/12/10 10:44:39;;;;;;;23.45;9.55;;;;;;;1.45;82.38;97840.44;5035724;28;20034;-76
2020/12/10 10:47:04;;;;;;;19.55;8.80;;;;;;;1.47;81.62;97829.63;5054861;28;20450;-73
2020/12/10 10:49:29;;;;;;;20.83;9.30;;;;;;;1.61;81.93;97836.06;5037939;28;20043;-73
2020/12/10 10:51:54;;;;;;;24.60;11.60;;;;;;;1.67;81.06;97836.22;5052940;28;20028;-74
2020/12/10 10:54:20;;;;;;;25.23;12.75;;;;;;;1.59;80.60;97840.72;5052520;28;20025;-74
2020/12/10 10:56:45;;;;;;;20.55;9.48;;;;;;;1.36;80.34;97825.44;5052310;28;20040;-73
2020/12/10 10:59:11;;;;;;;17.52;8.30;;;;;;;1.47;81.53;97835.78;5051443;28;20367;-73
2020/12/10 11:01:36;;;;;;;19.52;9.50;;;;;;;1.40;81.85;97817.97;5052195;28;20442;-73
2020/12/10 11:04:01;;;;;;;27.70;13.32;;;;;;;1.56;81.60;97835.75;5052600;28;20037;-74
2020/12/10 11:06:27;;;;;;;27.23;12.00;;;;;;;1.58;81.09;97831.09;5047939;28;20060;-74
2020/12/10 11:08:52;;;;;;;19.13;8.77;;;;;;;1.50;80.70;97826.59;5031611;28;20072;-73
2020/12/10 11:11:19;;;;;;;16.67;8.25;;;;;;;1.60;80.19;97813.91;5049526;28;20035;-72
2020/12/10 11:13:44;;;;;;;12.73;6.72;;;;;;;1.77;79.30;97825.34;5051919;28;20029;-74
2020/12/10 11:16:10;;;;;;;11.52;5.43;;;;;;;1.86;78.31;97827.00;5051938;28;20043;-74
2020/12/10 11:18:35;;;;;;;11.15;5.38;;;;;;;1.80;77.11;97811.66;5034509;28;20491;-74
2020/12/10 11:21:00;;;;;;;14.82;6.40;;;;;;;1.94;77.33;97818.97;5058889;28;20021;-75
2020/12/10 11:23:26;;;;;;;11.23;4.95;;;;;;;2.33;76.20;97814.59;5053267;28;20025;-72
2020/12/10 11:25:51;;;;;;;9.25;5.00;;;;;;;2.53;74.79;97810.47;5050749;28;20051;-72
2020/12/10 11:28:16;;;;;;;12.27;5.60;;;;;;;2.37;77.03;97779.38;5053037;28;20040;-75
2020/12/10 11:30:41;;;;;;;10.85;5.30;;;;;;;2.73;77.00;97826.88;5049906;28;20501;-73